createdAt,value
2023-03-06T00:00:50.727Z,2.80
2023-03-06T00:03:53.416Z,2.79
2023-03-06T00:06:59.878Z,2.81
2023-03-06T00:10:03.801Z,2.79
2023-03-06T00:13:15.077Z,2.86
2023-03-06T00:16:18.439Z,2.84
2023-03-06T00:19:23.943Z,2.75
2023-03-06T00:22:31.427Z,2.72
2023-03-06T00:25:38.088Z,2.76
2023-03-06T00:28:43.005Z,2.65
2023-03-06T00:31:50.698Z,2.65
2023-03-06T00:34:55.775Z,2.67
2023-03-06T00:38:00.709Z,2.72
2023-03-06T00:41:12.112Z,2.74
2023-03-06T00:44:21.042Z,2.75
2023-03-06T00:47:24.942Z,2.77
2023-03-06T00:50:28.349Z,2.64
2023-03-06T00:53:31.672Z,2.61
2023-03-06T00:56:36.178Z,2.69
2023-03-06T00:59:42.143Z,2.74
2023-03-06T01:02:45.299Z,2.74
2023-03-06T01:05:50.461Z,2.82
2023-03-06T01:08:57.548Z,2.86
2023-03-06T01:12:07.308Z,2.83
2023-03-06T01:15:11.136Z,2.85
2023-03-06T01:18:15.225Z,2.84
2023-03-06T01:21:21.801Z,2.84
2023-03-06T01:24:26.954Z,2.85
2023-03-06T01:27:37.117Z,2.82
2023-03-06T01:30:41.215Z,2.84
2023-03-06T01:33:43.779Z,2.85
2023-03-06T01:36:47.975Z,2.88
2023-03-06T01:39:52.549Z,2.86
2023-03-06T01:43:05.829Z,2.94
2023-03-06T01:46:17.068Z,3.00
2023-03-06T01:49:33.585Z,3.04
2023-03-06T01:52:42.816Z,3.00
2023-03-06T01:55:46.520Z,2.95
2023-03-06T01:58:50.334Z,2.94
2023-03-06T02:01:56.048Z,2.92
2023-03-06T02:05:12.316Z,3.03
2023-03-06T02:08:17.738Z,3.04
2023-03-06T02:11:29.077Z,3.07
2023-03-06T02:14:31.854Z,2.98
2023-03-06T02:17:39.823Z,3.00
2023-03-06T02:20:56.743Z,3.03
2023-03-06T02:24:13.230Z,3.07
2023-03-06T02:27:20.652Z,3.05
2023-03-06T02:30:26.304Z,3.04
2023-03-06T02:33:32.994Z,2.96
2023-03-06T02:36:40.180Z,2.92
2023-03-06T02:39:45.658Z,2.92
2023-03-06T02:43:02.041Z,2.87
2023-03-06T02:46:06.190Z,2.84
2023-03-06T02:49:10.370Z,2.91
2023-03-06T02:52:18.461Z,2.95
2023-03-06T02:55:22.989Z,2.95
2023-03-06T02:58:27.330Z,2.94
2023-03-06T03:01:31.140Z,2.97
2023-03-06T03:04:40.266Z,2.94
2023-03-06T03:07:46.128Z,3.04
2023-03-06T03:10:50.025Z,3.01
2023-03-06T03:13:54.348Z,2.96
2023-03-06T03:16:57.043Z,3.03
2023-03-06T03:20:00.163Z,3.07
2023-03-06T03:23:04.962Z,3.13
2023-03-06T03:26:12.261Z,3.18
2023-03-06T03:29:17.402Z,3.22
2023-03-06T03:32:25.032Z,3.17
2023-03-06T03:35:30.462Z,3.15
2023-03-06T03:38:36.516Z,3.21
2023-03-06T03:41:43.748Z,3.22
2023-03-06T03:44:48.751Z,3.21
2023-03-06T03:47:51.352Z,3.20
2023-03-06T03:50:55.226Z,3.29
2023-03-06T03:53:59.676Z,3.23
2023-03-06T03:57:04.936Z,3.23
2023-03-06T04:00:18.869Z,3.20
2023-03-06T04:03:22.990Z,3.23
2023-03-06T04:06:29.456Z,3.20
2023-03-06T04:09:33.968Z,3.26
2023-03-06T04:12:39.311Z,3.22
2023-03-06T04:15:43.949Z,3.22
2023-03-06T04:18:50.640Z,3.16
2023-03-06T04:22:02.802Z,3.15
2023-03-06T04:25:08.891Z,3.10
2023-03-06T04:28:13.008Z,3.09
2023-03-06T04:31:17.226Z,3.11
2023-03-06T04:34:23.206Z,3.17
2023-03-06T04:37:26.507Z,3.15
2023-03-06T04:40:32.347Z,3.16
2023-03-06T04:43:38.433Z,3.20
2023-03-06T04:46:46.931Z,3.19
2023-03-06T04:49:50.849Z,3.19
2023-03-06T04:52:56.501Z,3.22
2023-03-06T04:56:01.827Z,3.20
2023-03-06T04:59:07.974Z,3.20
2023-03-06T05:02:15.563Z,3.19
2023-03-06T05:05:24.023Z,3.17
2023-03-06T05:08:27.633Z,3.16
2023-03-06T05:11:31.234Z,3.21
2023-03-06T05:14:34.740Z,3.22
2023-03-06T05:17:42.959Z,3.21
2023-03-06T05:20:47.070Z,3.17
2023-03-06T05:23:50.757Z,3.16
2023-03-06T05:26:53.677Z,3.18
2023-03-06T05:29:57.883Z,3.20
2023-03-06T05:33:02.851Z,3.23
2023-03-06T05:36:07.674Z,3.26
2023-03-06T05:39:12.204Z,3.09
2023-03-06T05:42:16.840Z,3.05
2023-03-06T05:45:20.126Z,2.95
2023-03-06T05:48:25.268Z,2.94
2023-03-06T05:51:29.903Z,2.91
2023-03-06T05:54:37.273Z,2.98
2023-03-06T05:57:40.681Z,2.96
2023-03-06T06:00:44.389Z,2.95
2023-03-06T06:03:48.082Z,3.00
2023-03-06T06:07:00.313Z,3.06
2023-03-06T06:10:06.486Z,3.19
2023-03-06T06:13:12.940Z,3.29
2023-03-06T06:16:23.110Z,3.33
2023-03-06T06:19:29.401Z,3.34
2023-03-06T06:22:34.107Z,3.38
2023-03-06T06:25:41.395Z,3.45
2023-03-06T06:28:44.907Z,3.43
2023-03-06T06:31:50.035Z,3.60
2023-03-06T06:34:54.689Z,3.68
2023-03-06T06:38:04.733Z,3.69
2023-03-06T06:44:35.180Z,3.79
2023-03-06T06:47:44.098Z,3.67
2023-03-06T06:50:47.905Z,3.77
2023-03-06T06:53:59.401Z,3.81
2023-03-06T06:57:04.146Z,3.75
2023-03-06T07:00:09.289Z,3.82
2023-03-06T07:03:21.906Z,3.90
2023-03-06T07:06:25.742Z,3.93
2023-03-06T07:09:32.912Z,3.96
2023-03-06T07:12:39.782Z,4.02
2023-03-06T07:15:43.748Z,4.03
2023-03-06T07:18:48.637Z,3.93
2023-03-06T07:21:56.029Z,3.86
2023-03-06T07:25:00.748Z,3.94
2023-03-06T07:28:11.629Z,3.98
2023-03-06T07:31:20.308Z,3.93
2023-03-06T07:34:28.523Z,3.87
2023-03-06T07:37:32.599Z,3.81
2023-03-06T07:40:36.914Z,3.62
2023-03-06T07:43:51.008Z,3.57
2023-03-06T07:46:55.153Z,3.68
2023-03-06T07:50:03.194Z,3.86
2023-03-06T07:53:06.584Z,4.00
2023-03-06T07:56:12.661Z,4.03
2023-03-06T07:59:16.519Z,4.02
2023-03-06T08:02:23.028Z,4.04
2023-03-06T08:05:25.733Z,3.98
2023-03-06T08:08:28.950Z,4.01
2023-03-06T08:11:34.500Z,3.82
2023-03-06T08:14:37.217Z,3.73
2023-03-06T08:17:40.173Z,3.74
2023-03-06T08:20:43.549Z,3.70
2023-03-06T08:23:48.044Z,3.92
2023-03-06T08:26:51.783Z,4.02
2023-03-06T08:29:55.081Z,4.30
2023-03-06T08:32:57.778Z,4.44
2023-03-06T08:36:03.755Z,4.32
2023-03-06T08:39:06.436Z,4.46
2023-03-06T08:42:11.069Z,4.79
2023-03-06T08:45:14.313Z,4.91
2023-03-06T08:48:17.320Z,4.81
2023-03-06T08:51:25.102Z,4.72
2023-03-06T08:54:28.544Z,4.76
2023-03-06T08:57:31.889Z,4.97
2023-03-06T09:00:35.996Z,5.43
2023-03-06T09:03:45.438Z,5.81
2023-03-06T09:06:48.369Z,5.37
2023-03-06T09:09:51.370Z,5.66
2023-03-06T09:12:57.440Z,5.55
2023-03-06T09:16:02.173Z,5.96
2023-03-06T09:19:06.795Z,6.34
2023-03-06T09:22:13.069Z,6.36
2023-03-06T09:25:20.462Z,6.32
2023-03-06T09:28:23.374Z,6.50
2023-03-06T09:31:28.296Z,6.57
2023-03-06T09:34:31.089Z,6.65
2023-03-06T09:37:34.184Z,6.78
2023-03-06T09:40:49.142Z,6.73
2023-03-06T09:43:54.724Z,6.76
2023-03-06T09:47:15.909Z,6.66
2023-03-06T09:50:32.581Z,6.70
2023-03-06T09:54:04.386Z,6.77
2023-03-06T09:57:14.428Z,6.81
2023-03-06T10:00:20.818Z,6.91
2023-03-06T10:03:42.347Z,6.60
2023-03-06T10:06:52.613Z,7.01
2023-03-06T10:10:00.976Z,7.21
2023-03-06T10:13:07.505Z,7.27
2023-03-06T10:16:13.259Z,7.30
2023-03-06T10:19:18.803Z,7.19
2023-03-06T10:22:24.456Z,6.80
2023-03-06T10:25:31.996Z,6.45
2023-03-06T10:28:42.324Z,6.28
2023-03-06T10:31:49.679Z,6.28
2023-03-06T10:34:55.125Z,6.00
2023-03-06T10:38:24.475Z,5.81
2023-03-06T10:41:32.915Z,5.93
2023-03-06T10:44:35.368Z,5.91
2023-03-06T10:47:39.344Z,5.67
2023-03-06T10:50:43.466Z,5.69
2023-03-06T10:53:52.712Z,5.81
2023-03-06T10:56:58.005Z,6.06
2023-03-06T11:00:06.921Z,6.25
2023-03-06T11:03:24.053Z,6.32
2023-03-06T11:06:37.394Z,6.27
2023-03-06T11:09:40.477Z,6.48
2023-03-06T11:12:45.604Z,6.57
2023-03-06T11:16:05.653Z,6.79
2023-03-06T11:19:20.150Z,6.75
2023-03-06T11:22:24.884Z,6.77
2023-03-06T11:25:31.460Z,6.76
2023-03-06T11:28:55.383Z,6.76
2023-03-06T11:31:59.044Z,6.95
2023-03-06T11:35:16.482Z,7.00
2023-03-06T11:38:46.104Z,6.86
2023-03-06T11:42:10.926Z,6.88
2023-03-06T11:45:26.388Z,6.88
2023-03-06T11:48:35.339Z,7.02
2023-03-06T11:51:43.035Z,7.05
2023-03-06T11:54:48.766Z,7.09
2023-03-06T11:58:16.627Z,7.02
2023-03-06T12:01:42.521Z,6.72
2023-03-06T12:04:48.818Z,6.71
2023-03-06T12:08:06.989Z,6.36
2023-03-06T12:11:22.784Z,6.36
2023-03-06T12:14:40.925Z,6.51
2023-03-06T12:17:47.607Z,6.73
2023-03-06T12:20:56.635Z,6.89
2023-03-06T12:24:01.386Z,6.70
2023-03-06T12:27:10.100Z,6.79
2023-03-06T12:30:25.808Z,6.74
2023-03-06T12:33:34.073Z,6.75
2023-03-06T12:36:48.771Z,6.92
2023-03-06T12:39:51.466Z,6.68
2023-03-06T12:42:56.702Z,6.93
2023-03-06T12:46:08.009Z,6.82
2023-03-06T12:49:31.164Z,6.81
2023-03-06T12:52:36.107Z,6.60
2023-03-06T12:55:44.821Z,6.51
2023-03-06T12:58:54.797Z,6.50
2023-03-06T13:01:58.163Z,6.38
2023-03-06T13:05:20.511Z,6.23
2023-03-06T13:08:46.156Z,6.32
2023-03-06T13:11:51.390Z,6.23
2023-03-06T13:14:57.231Z,5.94
2023-03-06T13:18:00.737Z,6.01
2023-03-06T13:21:09.460Z,6.14
2023-03-06T13:24:22.806Z,6.16
2023-03-06T13:27:46.697Z,5.97
2023-03-06T13:30:52.998Z,5.89
2023-03-06T13:33:59.421Z,5.81
2023-03-06T13:37:20.559Z,5.56
2023-03-06T13:40:37.797Z,5.60
2023-03-06T13:43:45.359Z,5.75
2023-03-06T13:47:01.904Z,6.01
2023-03-06T13:50:23.300Z,5.77
2023-03-06T13:53:38.971Z,5.79
2023-03-06T13:57:07.073Z,6.09
2023-03-06T14:00:31.466Z,5.59
2023-03-06T14:03:54.809Z,5.66
2023-03-06T14:07:24.150Z,5.62
2023-03-06T14:10:28.012Z,5.69
2023-03-06T14:13:47.494Z,5.50
2023-03-06T14:16:51.814Z,5.15
2023-03-06T14:19:56.157Z,5.41
2023-03-06T14:23:30.198Z,5.41
2023-03-06T14:26:34.315Z,5.40
2023-03-06T14:29:37.413Z,5.42
2023-03-06T14:32:42.465Z,5.50
2023-03-06T14:35:53.241Z,5.40
2023-03-06T14:39:03.797Z,5.24
2023-03-06T14:42:09.672Z,4.99
2023-03-06T14:45:24.323Z,4.83
2023-03-06T14:48:44.076Z,4.91
2023-03-06T14:51:48.495Z,4.95
2023-03-06T14:54:51.599Z,4.90
2023-03-06T14:58:00.428Z,4.84
2023-03-06T15:01:05.403Z,4.80
2023-03-06T15:04:18.832Z,4.82
2023-03-06T15:07:28.145Z,4.78
2023-03-06T15:10:32.769Z,4.67
2023-03-06T15:13:37.238Z,4.73
2023-03-06T15:16:40.077Z,4.76
2023-03-06T15:19:43.421Z,4.75
2023-03-06T15:22:52.116Z,4.79
2023-03-06T15:26:00.434Z,4.66
2023-03-06T15:29:16.864Z,4.73
2023-03-06T15:32:26.244Z,4.73
2023-03-06T15:35:30.345Z,4.70
2023-03-06T15:38:35.932Z,4.50
2023-03-06T15:41:40.189Z,4.51
2023-03-06T15:44:43.292Z,4.58
2023-03-06T15:47:48.643Z,4.43
2023-03-06T15:50:53.017Z,4.38
2023-03-06T15:54:09.736Z,4.43
2023-03-06T15:57:19.963Z,4.32
2023-03-06T16:00:33.484Z,4.37
2023-03-06T16:03:37.088Z,4.37
2023-03-06T16:06:40.792Z,4.40
2023-03-06T16:09:46.411Z,4.45
2023-03-06T16:12:52.106Z,4.43
2023-03-06T16:15:58.934Z,4.44
2023-03-06T16:19:07.563Z,4.44
2023-03-06T16:22:15.467Z,4.44
2023-03-06T16:25:21.134Z,4.24
2023-03-06T16:28:24.060Z,4.21
2023-03-06T16:31:27.302Z,4.18
2023-03-06T16:34:29.992Z,4.05
2023-03-06T16:37:32.854Z,4.00
2023-03-06T16:40:43.086Z,3.94
2023-03-06T16:43:47.449Z,3.89
2023-03-06T16:46:52.447Z,3.89
2023-03-06T16:49:58.436Z,3.90
2023-03-06T16:53:03.991Z,3.84
2023-03-06T16:56:08.286Z,3.81
2023-03-06T16:59:15.214Z,3.89
2023-03-06T17:02:18.640Z,3.91
2023-03-06T17:05:22.899Z,3.90
2023-03-06T17:08:26.705Z,3.92
2023-03-06T17:11:30.414Z,3.95
2023-03-06T17:14:34.269Z,3.97
2023-03-06T17:17:37.278Z,3.98
2023-03-06T17:20:43.947Z,3.98
2023-03-06T17:23:47.048Z,3.93
2023-03-06T17:26:50.234Z,3.88
2023-03-06T17:29:52.835Z,3.84
2023-03-06T17:32:59.075Z,3.83
2023-03-06T17:36:02.084Z,3.89
2023-03-06T17:39:05.634Z,3.77
2023-03-06T17:42:09.379Z,3.71
2023-03-06T17:45:12.889Z,3.60
2023-03-06T17:48:15.896Z,3.56
2023-03-06T17:51:18.766Z,3.56
2023-03-06T17:54:24.316Z,3.61
2023-03-06T17:57:27.492Z,3.53
2023-03-06T18:00:31.262Z,3.52
2023-03-06T18:03:35.911Z,3.58
2023-03-06T18:06:40.072Z,3.56
2023-03-06T18:09:43.951Z,3.56
2023-03-06T18:12:51.103Z,3.61
2023-03-06T18:15:55.792Z,3.58
2023-03-06T18:18:59.064Z,3.57
2023-03-06T18:22:02.159Z,3.63
2023-03-06T18:25:04.978Z,3.70
2023-03-06T18:28:07.532Z,3.77
2023-03-06T18:31:20.270Z,3.77
2023-03-06T18:34:24.167Z,3.77
2023-03-06T18:37:26.522Z,3.69
2023-03-06T18:40:30.234Z,3.71
2023-03-06T18:43:32.525Z,3.61
2023-03-06T18:46:39.336Z,3.59
2023-03-06T18:49:44.348Z,3.61
2023-03-06T18:52:48.381Z,3.59
2023-03-06T18:55:52.811Z,3.59
2023-03-06T18:59:00.690Z,3.67
2023-03-06T19:02:07.490Z,3.56
2023-03-06T19:05:11.409Z,3.52
2023-03-06T19:08:15.733Z,3.42
2023-03-06T19:11:19.138Z,3.37
2023-03-06T19:14:22.442Z,3.42
2023-03-06T19:17:25.627Z,3.43
2023-03-06T19:20:29.134Z,3.35
2023-03-06T19:23:32.328Z,3.35
2023-03-06T19:26:36.636Z,3.27
2023-03-06T19:29:39.220Z,3.27
2023-03-06T19:32:45.409Z,3.29
2023-03-06T19:35:49.215Z,3.21
2023-03-06T19:38:55.084Z,3.26
2023-03-06T19:41:58.060Z,3.23
2023-03-06T19:45:00.534Z,3.25
2023-03-06T19:48:05.844Z,3.29
2023-03-06T19:51:08.993Z,3.32
2023-03-06T19:54:13.806Z,3.27
2023-03-06T19:57:17.936Z,3.20
2023-03-06T20:00:21.324Z,3.19
2023-03-06T20:03:25.054Z,3.23
2023-03-06T20:06:32.740Z,3.13
2023-03-06T20:09:36.650Z,3.00
2023-03-06T20:12:41.087Z,3.04
2023-03-06T20:15:44.229Z,3.05
2023-03-06T20:18:48.107Z,2.96
2023-03-06T20:21:51.883Z,2.92
2023-03-06T20:24:54.669Z,2.92
2023-03-06T20:27:57.889Z,2.93
2023-03-06T20:31:08.278Z,2.99
2023-03-06T20:34:13.064Z,3.09
2023-03-06T20:37:17.285Z,3.06
2023-03-06T20:40:21.349Z,3.05
2023-03-06T20:43:24.630Z,3.08
2023-03-06T20:46:31.711Z,3.05
2023-03-06T20:49:36.647Z,3.13
2023-03-06T20:52:39.845Z,3.14
2023-03-06T20:55:45.904Z,3.12
2023-03-06T20:58:50.209Z,3.14
2023-03-06T21:01:53.799Z,3.16
2023-03-06T21:04:56.232Z,3.20
2023-03-06T21:07:58.571Z,3.30
2023-03-06T21:11:03.303Z,3.26
2023-03-06T21:14:08.250Z,3.35
2023-03-06T21:17:13.497Z,3.35
2023-03-06T21:20:18.717Z,3.45
2023-03-06T21:23:23.260Z,3.37
2023-03-06T21:26:28.712Z,3.45
2023-03-06T21:29:33.948Z,3.51
2023-03-06T21:32:38.326Z,3.39
2023-03-06T21:35:43.825Z,3.34
2023-03-06T21:38:48.870Z,3.37
2023-03-06T21:41:52.786Z,3.31
2023-03-06T21:44:55.781Z,3.26
2023-03-06T21:47:59.477Z,3.18
2023-03-06T21:51:09.836Z,3.17
2023-03-06T21:54:14.357Z,3.09
2023-03-06T21:57:17.774Z,3.03
2023-03-06T22:00:29.362Z,3.02
2023-03-06T22:03:33.488Z,3.01
2023-03-06T22:06:40.882Z,3.00
2023-03-06T22:09:43.055Z,3.06
2023-03-06T22:12:47.471Z,3.04
2023-03-06T22:15:52.520Z,3.04
2023-03-06T22:18:58.596Z,3.03
2023-03-06T22:22:01.889Z,3.09
2023-03-06T22:25:07.349Z,3.14
2023-03-06T22:28:12.783Z,3.23
2023-03-06T22:31:22.622Z,3.23
2023-03-06T22:34:28.283Z,3.14
2023-03-06T22:37:32.900Z,3.08
2023-03-06T22:40:36.731Z,3.02
2023-03-06T22:43:40.850Z,3.01
2023-03-06T22:46:43.822Z,3.09
2023-03-06T22:49:47.011Z,3.10
2023-03-06T22:52:53.502Z,3.04
2023-03-06T22:56:01.122Z,3.10
2023-03-06T22:59:06.456Z,3.23
2023-03-06T23:02:09.545Z,3.23
2023-03-06T23:05:12.753Z,3.17
2023-03-06T23:08:18.500Z,3.18
2023-03-06T23:11:23.209Z,3.22
2023-03-06T23:14:26.785Z,3.33
2023-03-06T23:17:30.318Z,3.36
2023-03-06T23:20:36.714Z,3.20
2023-03-06T23:23:41.376Z,3.07
2023-03-06T23:26:44.237Z,2.93
2023-03-06T23:29:50.504Z,2.90
2023-03-06T23:32:53.392Z,2.82
2023-03-06T23:35:56.906Z,2.78
2023-03-06T23:39:01.316Z,2.80
2023-03-06T23:42:05.542Z,2.76
2023-03-06T23:45:08.741Z,2.75
2023-03-06T23:48:12.119Z,2.80
2023-03-06T23:51:16.875Z,2.74
2023-03-06T23:54:20.875Z,2.68
2023-03-06T23:57:28.068Z,2.68
